sensor_id;sensor_type;location;lat;lon;timestamp;P1;durP1;ratioP1;P2;durP2;ratioP2
32535;SDS011;18974;50.838;4.636;2023-07-31T00:02:16;19.83;;;6.30;;
32535;SDS011;18974;50.838;4.636;2023-07-31T00:04:41;21.45;;;5.68;;
32535;SDS011;18974;50.838;4.636;2023-07-31T00:07:07;19.50;;;6.38;;
32535;SDS011;18974;50.838;4.636;2023-07-31T00:09:33;17.60;;;5.63;;
32535;SDS011;18974;50.838;4.636;2023-07-31T00:11:59;21.52;;;6.95;;
32535;SDS011;18974;50.838;4.636;2023-07-31T00:14:24;19.92;;;6.25;;
32535;SDS011;18974;50.838;4.636;2023-07-31T00:16:50;21.48;;;6.10;;
32535;SDS011;18974;50.838;4.636;2023-07-31T00:19:16;16.75;;;6.53;;
32535;SDS011;18974;50.838;4.636;2023-07-31T00:21:42;20.80;;;6.53;;
32535;SDS011;18974;50.838;4.636;2023-07-31T00:24:08;22.75;;;6.50;;
32535;SDS011;18974;50.838;4.636;2023-07-31T00:26:34;20.30;;;6.30;;
32535;SDS011;18974;50.838;4.636;2023-07-31T00:28:59;20.42;;;5.78;;
32535;SDS011;18974;50.838;4.636;2023-07-31T00:31:25;23.92;;;6.65;;
32535;SDS011;18974;50.838;4.636;2023-07-31T00:33:51;26.60;;;6.50;;
32535;SDS011;18974;50.838;4.636;2023-07-31T00:36:17;13.38;;;5.60;;
32535;SDS011;18974;50.838;4.636;2023-07-31T00:38:43;21.30;;;6.18;;
32535;SDS011;18974;50.838;4.636;2023-07-31T00:41:09;21.90;;;6.90;;
32535;SDS011;18974;50.838;4.636;2023-07-31T00:43:34;19.98;;;5.95;;
32535;SDS011;18974;50.838;4.636;2023-07-31T00:46:00;14.57;;;6.18;;
32535;SDS011;18974;50.838;4.636;2023-07-31T00:48:26;16.75;;;5.90;;
32535;SDS011;18974;50.838;4.636;2023-07-31T00:50:52;13.82;;;5.90;;
32535;SDS011;18974;50.838;4.636;2023-07-31T00:53:18;19.98;;;6.43;;
32535;SDS011;18974;50.838;4.636;2023-07-31T00:55:44;22.35;;;6.03;;
32535;SDS011;18974;50.838;4.636;2023-07-31T00:58:10;18.60;;;6.18;;
32535;SDS011;18974;50.838;4.636;2023-07-31T01:00:35;17.50;;;6.00;;
32535;SDS011;18974;50.838;4.636;2023-07-31T01:03:01;15.65;;;5.97;;
32535;SDS011;18974;50.838;4.636;2023-07-31T01:11:00;16.38;;;6.63;;
32535;SDS011;18974;50.838;4.636;2023-07-31T01:13:32;16.00;;;5.43;;
32535;SDS011;18974;50.838;4.636;2023-07-31T01:15:58;22.02;;;6.43;;
32535;SDS011;18974;50.838;4.636;2023-07-31T01:18:24;17.40;;;6.07;;
32535;SDS011;18974;50.838;4.636;2023-07-31T01:21:06;18.77;;;5.97;;
32535;SDS011;18974;50.838;4.636;2023-07-31T01:26:33;16.08;;;5.95;;
32535;SDS011;18974;50.838;4.636;2023-07-31T01:29:09;15.75;;;5.85;;
32535;SDS011;18974;50.838;4.636;2023-07-31T01:31:44;20.08;;;5.80;;
32535;SDS011;18974;50.838;4.636;2023-07-31T01:34:13;17.65;;;6.13;;
32535;SDS011;18974;50.838;4.636;2023-07-31T01:36:42;19.10;;;6.13;;
32535;SDS011;18974;50.838;4.636;2023-07-31T01:39:08;16.05;;;5.88;;
32535;SDS011;18974;50.838;4.636;2023-07-31T01:41:34;21.23;;;6.22;;
32535;SDS011;18974;50.838;4.636;2023-07-31T01:44:00;16.30;;;5.55;;
32535;SDS011;18974;50.838;4.636;2023-07-31T01:46:25;15.88;;;6.30;;
32535;SDS011;18974;50.838;4.636;2023-07-31T01:48:51;19.23;;;6.85;;
32535;SDS011;18974;50.838;4.636;2023-07-31T01:51:16;13.63;;;5.65;;
32535;SDS011;18974;50.838;4.636;2023-07-31T01:53:42;15.50;;;5.75;;
32535;SDS011;18974;50.838;4.636;2023-07-31T01:56:08;21.63;;;6.50;;
32535;SDS011;18974;50.838;4.636;2023-07-31T01:58:33;20.08;;;6.43;;
32535;SDS011;18974;50.838;4.636;2023-07-31T02:00:59;18.45;;;6.32;;
32535;SDS011;18974;50.838;4.636;2023-07-31T02:03:25;17.65;;;6.80;;
32535;SDS011;18974;50.838;4.636;2023-07-31T02:05:50;20.67;;;6.35;;
32535;SDS011;18974;50.838;4.636;2023-07-31T02:08:16;14.90;;;6.35;;
32535;SDS011;18974;50.838;4.636;2023-07-31T02:10:42;15.57;;;6.40;;
32535;SDS011;18974;50.838;4.636;2023-07-31T02:13:07;15.98;;;6.25;;
32535;SDS011;18974;50.838;4.636;2023-07-31T02:15:33;12.82;;;5.72;;
32535;SDS011;18974;50.838;4.636;2023-07-31T02:17:59;18.67;;;6.72;;
32535;SDS011;18974;50.838;4.636;2023-07-31T02:20:25;13.95;;;5.95;;
32535;SDS011;18974;50.838;4.636;2023-07-31T02:22:51;16.35;;;6.18;;
32535;SDS011;18974;50.838;4.636;2023-07-31T02:25:16;12.30;;;6.38;;
32535;SDS011;18974;50.838;4.636;2023-07-31T02:27:42;16.52;;;5.95;;
32535;SDS011;18974;50.838;4.636;2023-07-31T02:30:08;15.48;;;6.05;;
32535;SDS011;18974;50.838;4.636;2023-07-31T02:32:34;18.42;;;6.50;;
32535;SDS011;18974;50.838;4.636;2023-07-31T02:35:00;17.67;;;6.20;;
32535;SDS011;18974;50.838;4.636;2023-07-31T02:37:25;15.50;;;5.70;;
32535;SDS011;18974;50.838;4.636;2023-07-31T02:39:53;12.77;;;5.70;;
32535;SDS011;18974;50.838;4.636;2023-07-31T02:42:19;16.88;;;5.25;;
32535;SDS011;18974;50.838;4.636;2023-07-31T02:44:45;10.80;;;5.40;;
32535;SDS011;18974;50.838;4.636;2023-07-31T02:47:10;13.43;;;5.78;;
32535;SDS011;18974;50.838;4.636;2023-07-31T02:49:36;11.95;;;5.38;;
32535;SDS011;18974;50.838;4.636;2023-07-31T02:52:01;13.88;;;6.35;;
32535;SDS011;18974;50.838;4.636;2023-07-31T02:54:27;13.90;;;5.38;;
32535;SDS011;18974;50.838;4.636;2023-07-31T02:56:53;11.68;;;5.78;;
32535;SDS011;18974;50.838;4.636;2023-07-31T02:59:19;16.08;;;5.35;;
32535;SDS011;18974;50.838;4.636;2023-07-31T03:01:45;13.43;;;5.97;;
32535;SDS011;18974;50.838;4.636;2023-07-31T03:04:11;15.80;;;5.63;;
32535;SDS011;18974;50.838;4.636;2023-07-31T03:06:36;13.43;;;5.88;;
32535;SDS011;18974;50.838;4.636;2023-07-31T03:09:02;14.70;;;5.63;;
32535;SDS011;18974;50.838;4.636;2023-07-31T03:11:28;13.38;;;5.65;;
32535;SDS011;18974;50.838;4.636;2023-07-31T03:13:53;12.00;;;5.00;;
32535;SDS011;18974;50.838;4.636;2023-07-31T03:16:19;12.38;;;5.18;;
32535;SDS011;18974;50.838;4.636;2023-07-31T03:18:45;13.65;;;5.28;;
32535;SDS011;18974;50.838;4.636;2023-07-31T03:21:10;10.98;;;4.93;;
32535;SDS011;18974;50.838;4.636;2023-07-31T03:23:37;7.57;;;4.57;;
32535;SDS011;18974;50.838;4.636;2023-07-31T03:26:06;12.57;;;5.43;;
32535;SDS011;18974;50.838;4.636;2023-07-31T03:28:33;8.57;;;4.68;;
32535;SDS011;18974;50.838;4.636;2023-07-31T03:30:58;10.57;;;4.78;;
32535;SDS011;18974;50.838;4.636;2023-07-31T03:33:24;9.00;;;4.30;;
32535;SDS011;18974;50.838;4.636;2023-07-31T03:35:50;13.98;;;4.60;;
32535;SDS011;18974;50.838;4.636;2023-07-31T03:38:16;10.68;;;4.72;;
32535;SDS011;18974;50.838;4.636;2023-07-31T03:40:42;7.43;;;4.97;;
32535;SDS011;18974;50.838;4.636;2023-07-31T03:43:08;12.07;;;4.57;;
32535;SDS011;18974;50.838;4.636;2023-07-31T03:45:33;11.20;;;4.72;;
32535;SDS011;18974;50.838;4.636;2023-07-31T03:47:59;12.38;;;5.82;;
32535;SDS011;18974;50.838;4.636;2023-07-31T03:50:25;11.45;;;5.00;;
32535;SDS011;18974;50.838;4.636;2023-07-31T03:52:51;9.55;;;4.68;;
32535;SDS011;18974;50.838;4.636;2023-07-31T03:55:17;11.32;;;4.80;;
32535;SDS011;18974;50.838;4.636;2023-07-31T03:57:43;17.58;;;5.45;;
32535;SDS011;18974;50.838;4.636;2023-07-31T04:00:09;9.52;;;4.82;;
32535;SDS011;18974;50.838;4.636;2023-07-31T04:02:37;12.18;;;4.72;;
32535;SDS011;18974;50.838;4.636;2023-07-31T04:05:02;11.35;;;5.40;;
32535;SDS011;18974;50.838;4.636;2023-07-31T04:07:28;12.32;;;5.20;;
32535;SDS011;18974;50.838;4.636;2023-07-31T04:09:54;9.52;;;4.95;;
32535;SDS011;18974;50.838;4.636;2023-07-31T04:12:20;12.15;;;5.65;;
32535;SDS011;18974;50.838;4.636;2023-07-31T04:14:46;11.55;;;5.28;;
32535;SDS011;18974;50.838;4.636;2023-07-31T04:17:11;12.43;;;5.38;;
32535;SDS011;18974;50.838;4.636;2023-07-31T04:19:37;11.32;;;5.43;;
32535;SDS011;18974;50.838;4.636;2023-07-31T04:22:03;14.63;;;5.68;;
32535;SDS011;18974;50.838;4.636;2023-07-31T04:24:29;12.80;;;5.25;;
32535;SDS011;18974;50.838;4.636;2023-07-31T04:26:55;11.60;;;5.45;;
32535;SDS011;18974;50.838;4.636;2023-07-31T04:29:21;13.93;;;5.50;;
32535;SDS011;18974;50.838;4.636;2023-07-31T04:31:47;11.80;;;5.32;;
32535;SDS011;18974;50.838;4.636;2023-07-31T04:34:13;12.93;;;5.32;;
32535;SDS011;18974;50.838;4.636;2023-07-31T04:36:39;12.00;;;5.40;;
32535;SDS011;18974;50.838;4.636;2023-07-31T04:39:05;17.83;;;6.20;;
32535;SDS011;18974;50.838;4.636;2023-07-31T04:41:30;11.68;;;5.40;;
32535;SDS011;18974;50.838;4.636;2023-07-31T04:43:56;11.93;;;5.25;;
32535;SDS011;18974;50.838;4.636;2023-07-31T04:46:22;12.82;;;5.38;;
32535;SDS011;18974;50.838;4.636;2023-07-31T04:48:48;11.57;;;5.20;;
32535;SDS011;18974;50.838;4.636;2023-07-31T04:51:13;12.32;;;5.22;;
32535;SDS011;18974;50.838;4.636;2023-07-31T04:53:39;9.98;;;5.07;;
32535;SDS011;18974;50.838;4.636;2023-07-31T04:56:05;10.05;;;4.78;;
32535;SDS011;18974;50.838;4.636;2023-07-31T04:58:30;12.00;;;4.72;;
32535;SDS011;18974;50.838;4.636;2023-07-31T05:00:56;14.20;;;5.18;;
32535;SDS011;18974;50.838;4.636;2023-07-31T05:03:21;11.93;;;4.82;;
32535;SDS011;18974;50.838;4.636;2023-07-31T05:05:47;14.40;;;4.97;;
32535;SDS011;18974;50.838;4.636;2023-07-31T05:08:13;9.63;;;4.75;;
32535;SDS011;18974;50.838;4.636;2023-07-31T05:10:39;13.40;;;4.85;;
32535;SDS011;18974;50.838;4.636;2023-07-31T05:13:04;13.30;;;4.97;;
32535;SDS011;18974;50.838;4.636;2023-07-31T05:15:30;10.63;;;4.90;;
32535;SDS011;18974;50.838;4.636;2023-07-31T05:17:56;9.73;;;4.60;;
32535;SDS011;18974;50.838;4.636;2023-07-31T05:20:22;12.10;;;4.97;;
32535;SDS011;18974;50.838;4.636;2023-07-31T05:22:47;15.40;;;4.72;;
32535;SDS011;18974;50.838;4.636;2023-07-31T05:25:13;14.93;;;5.32;;
32535;SDS011;18974;50.838;4.636;2023-07-31T05:27:39;11.98;;;5.15;;
32535;SDS011;18974;50.838;4.636;2023-07-31T05:30:05;13.07;;;4.72;;
32535;SDS011;18974;50.838;4.636;2023-07-31T05:32:31;15.13;;;5.15;;
32535;SDS011;18974;50.838;4.636;2023-07-31T05:34:57;12.60;;;5.25;;
32535;SDS011;18974;50.838;4.636;2023-07-31T05:37:23;10.13;;;5.05;;
32535;SDS011;18974;50.838;4.636;2023-07-31T05:39:49;9.57;;;5.05;;
32535;SDS011;18974;50.838;4.636;2023-07-31T05:42:15;9.90;;;4.57;;
32535;SDS011;18974;50.838;4.636;2023-07-31T05:44:41;10.68;;;5.07;;
32535;SDS011;18974;50.838;4.636;2023-07-31T05:47:07;13.32;;;4.57;;
32535;SDS011;18974;50.838;4.636;2023-07-31T05:49:32;11.55;;;5.07;;
32535;SDS011;18974;50.838;4.636;2023-07-31T05:51:59;14.95;;;4.95;;
32535;SDS011;18974;50.838;4.636;2023-07-31T05:54:24;10.32;;;4.95;;
32535;SDS011;18974;50.838;4.636;2023-07-31T05:56:50;11.38;;;5.32;;
32535;SDS011;18974;50.838;4.636;2023-07-31T05:59:16;12.75;;;5.43;;
32535;SDS011;18974;50.838;4.636;2023-07-31T06:01:41;14.60;;;5.65;;
32535;SDS011;18974;50.838;4.636;2023-07-31T06:04:07;10.52;;;4.90;;
32535;SDS011;18974;50.838;4.636;2023-07-31T06:06:33;12.02;;;5.75;;
32535;SDS011;18974;50.838;4.636;2023-07-31T06:08:59;13.20;;;5.00;;
32535;SDS011;18974;50.838;4.636;2023-07-31T06:11:24;10.00;;;4.70;;
32535;SDS011;18974;50.838;4.636;2023-07-31T06:13:50;12.25;;;4.60;;
32535;SDS011;18974;50.838;4.636;2023-07-31T06:16:16;14.52;;;5.85;;
32535;SDS011;18974;50.838;4.636;2023-07-31T06:18:42;10.45;;;5.10;;
32535;SDS011;18974;50.838;4.636;2023-07-31T06:21:08;12.73;;;4.55;;
32535;SDS011;18974;50.838;4.636;2023-07-31T06:23:34;17.20;;;4.88;;
32535;SDS011;18974;50.838;4.636;2023-07-31T06:26:00;10.63;;;4.93;;
32535;SDS011;18974;50.838;4.636;2023-07-31T06:28:29;13.10;;;5.22;;
32535;SDS011;18974;50.838;4.636;2023-07-31T06:30:56;10.95;;;4.78;;
32535;SDS011;18974;50.838;4.636;2023-07-31T06:33:23;12.27;;;4.38;;
32535;SDS011;18974;50.838;4.636;2023-07-31T06:35:49;12.00;;;4.90;;
32535;SDS011;18974;50.838;4.636;2023-07-31T06:38:14;17.00;;;5.35;;
32535;SDS011;18974;50.838;4.636;2023-07-31T06:40:40;15.85;;;5.45;;
32535;SDS011;18974;50.838;4.636;2023-07-31T06:43:06;11.93;;;4.78;;
32535;SDS011;18974;50.838;4.636;2023-07-31T06:45:35;11.85;;;5.30;;
32535;SDS011;18974;50.838;4.636;2023-07-31T06:48:01;13.68;;;4.63;;
32535;SDS011;18974;50.838;4.636;2023-07-31T06:50:29;8.90;;;4.07;;
32535;SDS011;18974;50.838;4.636;2023-07-31T06:52:55;9.57;;;4.65;;
32535;SDS011;18974;50.838;4.636;2023-07-31T06:55:20;13.30;;;4.43;;
32535;SDS011;18974;50.838;4.636;2023-07-31T06:57:47;15.27;;;5.03;;
32535;SDS011;18974;50.838;4.636;2023-07-31T07:00:14;9.82;;;4.25;;
32535;SDS011;18974;50.838;4.636;2023-07-31T07:02:40;10.73;;;4.45;;
32535;SDS011;18974;50.838;4.636;2023-07-31T07:05:06;11.45;;;4.55;;
32535;SDS011;18974;50.838;4.636;2023-07-31T07:07:32;8.48;;;3.85;;
32535;SDS011;18974;50.838;4.636;2023-07-31T07:09:58;8.73;;;3.28;;
32535;SDS011;18974;50.838;4.636;2023-07-31T07:12:28;7.70;;;3.70;;
32535;SDS011;18974;50.838;4.636;2023-07-31T07:14:55;8.30;;;3.65;;
32535;SDS011;18974;50.838;4.636;2023-07-31T07:17:22;12.80;;;4.30;;
32535;SDS011;18974;50.838;4.636;2023-07-31T07:19:48;9.07;;;3.92;;
32535;SDS011;18974;50.838;4.636;2023-07-31T07:22:14;9.48;;;3.95;;
32535;SDS011;18974;50.838;4.636;2023-07-31T07:24:39;9.15;;;3.90;;
32535;SDS011;18974;50.838;4.636;2023-07-31T07:27:05;8.65;;;3.35;;
32535;SDS011;18974;50.838;4.636;2023-07-31T07:29:31;12.13;;;3.63;;
32535;SDS011;18974;50.838;4.636;2023-07-31T07:31:58;7.75;;;3.97;;
32535;SDS011;18974;50.838;4.636;2023-07-31T07:34:25;8.10;;;3.88;;
32535;SDS011;18974;50.838;4.636;2023-07-31T07:36:52;11.93;;;3.83;;
32535;SDS011;18974;50.838;4.636;2023-07-31T07:39:18;8.75;;;3.83;;
32535;SDS011;18974;50.838;4.636;2023-07-31T07:41:43;8.07;;;3.70;;
32535;SDS011;18974;50.838;4.636;2023-07-31T07:44:09;10.05;;;3.78;;
32535;SDS011;18974;50.838;4.636;2023-07-31T07:46:34;6.57;;;3.40;;
32535;SDS011;18974;50.838;4.636;2023-07-31T07:49:00;12.50;;;3.67;;
32535;SDS011;18974;50.838;4.636;2023-07-31T07:51:26;8.95;;;3.88;;
32535;SDS011;18974;50.838;4.636;2023-07-31T07:53:52;9.32;;;3.72;;
32535;SDS011;18974;50.838;4.636;2023-07-31T07:56:17;8.73;;;3.40;;
32535;SDS011;18974;50.838;4.636;2023-07-31T07:58:43;9.27;;;3.95;;
32535;SDS011;18974;50.838;4.636;2023-07-31T08:01:08;13.85;;;3.85;;
32535;SDS011;18974;50.838;4.636;2023-07-31T08:03:34;7.97;;;3.50;;
32535;SDS011;18974;50.838;4.636;2023-07-31T08:06:00;9.68;;;3.47;;
32535;SDS011;18974;50.838;4.636;2023-07-31T08:08:28;10.70;;;3.55;;
32535;SDS011;18974;50.838;4.636;2023-07-31T08:10:54;8.57;;;3.60;;
32535;SDS011;18974;50.838;4.636;2023-07-31T08:13:19;8.38;;;3.30;;
32535;SDS011;18974;50.838;4.636;2023-07-31T08:15:45;8.90;;;3.75;;
32535;SDS011;18974;50.838;4.636;2023-07-31T08:18:11;9.32;;;3.88;;
32535;SDS011;18974;50.838;4.636;2023-07-31T08:20:37;9.25;;;4.15;;
32535;SDS011;18974;50.838;4.636;2023-07-31T08:23:03;8.77;;;3.63;;
32535;SDS011;18974;50.838;4.636;2023-07-31T08:25:29;9.70;;;3.50;;
32535;SDS011;18974;50.838;4.636;2023-07-31T08:27:55;7.30;;;3.65;;
32535;SDS011;18974;50.838;4.636;2023-07-31T08:30:21;9.02;;;3.88;;
32535;SDS011;18974;50.838;4.636;2023-07-31T08:32:46;5.93;;;3.22;;
32535;SDS011;18974;50.838;4.636;2023-07-31T08:35:12;9.50;;;3.05;;
32535;SDS011;18974;50.838;4.636;2023-07-31T08:37:38;9.55;;;3.40;;
32535;SDS011;18974;50.838;4.636;2023-07-31T08:40:04;4.70;;;2.63;;
32535;SDS011;18974;50.838;4.636;2023-07-31T08:42:31;7.80;;;3.80;;
32535;SDS011;18974;50.838;4.636;2023-07-31T08:44:57;7.18;;;3.08;;
32535;SDS011;18974;50.838;4.636;2023-07-31T08:47:25;5.55;;;3.25;;
32535;SDS011;18974;50.838;4.636;2023-07-31T08:49:52;5.72;;;3.50;;
32535;SDS011;18974;50.838;4.636;2023-07-31T08:52:19;12.80;;;4.15;;
32535;SDS011;18974;50.838;4.636;2023-07-31T08:54:45;10.43;;;3.53;;
32535;SDS011;18974;50.838;4.636;2023-07-31T08:57:11;7.47;;;3.38;;
32535;SDS011;18974;50.838;4.636;2023-07-31T08:59:38;8.88;;;3.25;;
32535;SDS011;18974;50.838;4.636;2023-07-31T09:02:05;5.95;;;2.90;;
32535;SDS011;18974;50.838;4.636;2023-07-31T09:04:33;7.88;;;2.97;;
32535;SDS011;18974;50.838;4.636;2023-07-31T09:07:03;6.45;;;3.42;;
32535;SDS011;18974;50.838;4.636;2023-07-31T09:09:32;6.43;;;3.25;;
32535;SDS011;18974;50.838;4.636;2023-07-31T09:11:58;9.73;;;3.45;;
32535;SDS011;18974;50.838;4.636;2023-07-31T09:14:24;6.90;;;2.95;;
32535;SDS011;18974;50.838;4.636;2023-07-31T09:16:51;10.27;;;3.10;;
32535;SDS011;18974;50.838;4.636;2023-07-31T09:19:25;7.22;;;2.90;;
32535;SDS011;18974;50.838;4.636;2023-07-31T09:22:06;5.30;;;3.00;;
32535;SDS011;18974;50.838;4.636;2023-07-31T09:24:33;6.20;;;3.25;;
32535;SDS011;18974;50.838;4.636;2023-07-31T09:27:00;9.90;;;3.55;;
32535;SDS011;18974;50.838;4.636;2023-07-31T09:29:27;5.97;;;3.20;;
32535;SDS011;18974;50.838;4.636;2023-07-31T09:31:54;6.57;;;2.90;;
32535;SDS011;18974;50.838;4.636;2023-07-31T09:34:20;7.10;;;3.55;;
32535;SDS011;18974;50.838;4.636;2023-07-31T09:36:54;6.88;;;3.45;;
32535;SDS011;18974;50.838;4.636;2023-07-31T09:39:21;6.30;;;3.20;;
32535;SDS011;18974;50.838;4.636;2023-07-31T09:41:48;7.35;;;2.92;;
32535;SDS011;18974;50.838;4.636;2023-07-31T09:44:19;8.50;;;3.75;;
32535;SDS011;18974;50.838;4.636;2023-07-31T09:46:46;7.60;;;3.80;;
32535;SDS011;18974;50.838;4.636;2023-07-31T09:49:12;8.70;;;3.88;;
32535;SDS011;18974;50.838;4.636;2023-07-31T09:51:40;6.90;;;4.03;;
32535;SDS011;18974;50.838;4.636;2023-07-31T09:54:13;9.73;;;3.78;;
32535;SDS011;18974;50.838;4.636;2023-07-31T09:56:41;8.88;;;3.63;;
32535;SDS011;18974;50.838;4.636;2023-07-31T09:59:12;7.93;;;3.85;;
32535;SDS011;18974;50.838;4.636;2023-07-31T10:01:42;10.48;;;4.18;;
32535;SDS011;18974;50.838;4.636;2023-07-31T10:04:09;9.98;;;4.85;;
32535;SDS011;18974;50.838;4.636;2023-07-31T10:06:36;8.82;;;3.97;;
32535;SDS011;18974;50.838;4.636;2023-07-31T10:09:08;9.30;;;4.63;;
32535;SDS011;18974;50.838;4.636;2023-07-31T10:11:42;10.32;;;4.78;;
32535;SDS011;18974;50.838;4.636;2023-07-31T10:14:21;8.10;;;4.78;;
32535;SDS011;18974;50.838;4.636;2023-07-31T10:16:48;10.35;;;4.70;;
32535;SDS011;18974;50.838;4.636;2023-07-31T10:19:15;8.68;;;4.90;;
32535;SDS011;18974;50.838;4.636;2023-07-31T10:21:42;9.18;;;4.53;;
32535;SDS011;18974;50.838;4.636;2023-07-31T10:24:09;11.65;;;5.78;;
32535;SDS011;18974;50.838;4.636;2023-07-31T10:26:34;11.88;;;5.05;;
32535;SDS011;18974;50.838;4.636;2023-07-31T10:29:02;12.10;;;5.38;;
32535;SDS011;18974;50.838;4.636;2023-07-31T10:31:29;12.20;;;4.70;;
32535;SDS011;18974;50.838;4.636;2023-07-31T10:33:56;11.38;;;5.30;;
32535;SDS011;18974;50.838;4.636;2023-07-31T10:36:28;11.63;;;5.25;;
32535;SDS011;18974;50.838;4.636;2023-07-31T10:38:55;11.50;;;4.90;;
32535;SDS011;18974;50.838;4.636;2023-07-31T10:41:30;13.13;;;4.78;;
32535;SDS011;18974;50.838;4.636;2023-07-31T10:48:49;10.18;;;4.75;;
32535;SDS011;18974;50.838;4.636;2023-07-31T10:51:23;13.77;;;5.13;;
32535;SDS011;18974;50.838;4.636;2023-07-31T10:54:10;12.65;;;4.93;;
32535;SDS011;18974;50.838;4.636;2023-07-31T10:56:39;16.35;;;5.68;;
32535;SDS011;18974;50.838;4.636;2023-07-31T10:59:05;13.75;;;5.78;;
32535;SDS011;18974;50.838;4.636;2023-07-31T11:01:50;12.80;;;5.45;;
32535;SDS011;18974;50.838;4.636;2023-07-31T11:06:58;10.32;;;5.35;;
32535;SDS011;18974;50.838;4.636;2023-07-31T11:09:29;9.55;;;4.45;;
32535;SDS011;18974;50.838;4.636;2023-07-31T11:11:57;12.38;;;4.93;;
32535;SDS011;18974;50.838;4.636;2023-07-31T11:14:24;12.63;;;4.95;;
32535;SDS011;18974;50.838;4.636;2023-07-31T11:16:50;10.88;;;5.10;;
32535;SDS011;18974;50.838;4.636;2023-07-31T11:19:25;12.23;;;4.50;;
32535;SDS011;18974;50.838;4.636;2023-07-31T11:21:51;12.13;;;5.00;;
32535;SDS011;18974;50.838;4.636;2023-07-31T11:24:22;12.27;;;5.53;;
32535;SDS011;18974;50.838;4.636;2023-07-31T11:27:00;11.65;;;4.70;;
32535;SDS011;18974;50.838;4.636;2023-07-31T11:29:33;13.23;;;5.35;;
32535;SDS011;18974;50.838;4.636;2023-07-31T11:31:59;9.30;;;4.70;;
32535;SDS011;18974;50.838;4.636;2023-07-31T11:34:24;10.55;;;5.00;;
32535;SDS011;18974;50.838;4.636;2023-07-31T11:36:53;13.45;;;5.03;;
32535;SDS011;18974;50.838;4.636;2023-07-31T11:39:22;12.25;;;4.90;;
32535;SDS011;18974;50.838;4.636;2023-07-31T11:41:48;12.93;;;5.28;;
32535;SDS011;18974;50.838;4.636;2023-07-31T11:44:14;8.25;;;4.80;;
32535;SDS011;18974;50.838;4.636;2023-07-31T11:46:39;10.95;;;5.38;;
32535;SDS011;18974;50.838;4.636;2023-07-31T11:49:05;11.20;;;4.85;;
32535;SDS011;18974;50.838;4.636;2023-07-31T11:51:31;10.45;;;4.80;;
32535;SDS011;18974;50.838;4.636;2023-07-31T11:53:57;14.75;;;5.15;;
32535;SDS011;18974;50.838;4.636;2023-07-31T11:56:25;8.77;;;4.50;;
32535;SDS011;18974;50.838;4.636;2023-07-31T11:58:57;10.23;;;4.45;;
32535;SDS011;18974;50.838;4.636;2023-07-31T12:01:24;10.10;;;4.95;;
32535;SDS011;18974;50.838;4.636;2023-07-31T12:03:52;15.25;;;5.10;;
32535;SDS011;18974;50.838;4.636;2023-07-31T12:06:19;13.80;;;5.10;;
32535;SDS011;18974;50.838;4.636;2023-07-31T12:08:46;10.15;;;4.55;;
32535;SDS011;18974;50.838;4.636;2023-07-31T12:11:12;11.52;;;5.40;;
32535;SDS011;18974;50.838;4.636;2023-07-31T12:13:42;8.85;;;4.45;;
32535;SDS011;18974;50.838;4.636;2023-07-31T12:16:08;11.88;;;4.47;;
32535;SDS011;18974;50.838;4.636;2023-07-31T12:18:38;16.88;;;5.88;;
32535;SDS011;18974;50.838;4.636;2023-07-31T12:21:06;10.93;;;5.10;;
32535;SDS011;18974;50.838;4.636;2023-07-31T12:23:33;11.38;;;4.82;;
32535;SDS011;18974;50.838;4.636;2023-07-31T12:26:13;11.45;;;4.63;;
32535;SDS011;18974;50.838;4.636;2023-07-31T12:28:46;9.57;;;4.57;;
32535;SDS011;18974;50.838;4.636;2023-07-31T12:33:40;12.57;;;4.70;;
32535;SDS011;18974;50.838;4.636;2023-07-31T12:36:10;11.88;;;5.13;;
32535;SDS011;18974;50.838;4.636;2023-07-31T12:38:40;13.65;;;4.95;;
32535;SDS011;18974;50.838;4.636;2023-07-31T12:41:07;8.98;;;4.47;;
32535;SDS011;18974;50.838;4.636;2023-07-31T12:43:34;12.65;;;5.05;;
32535;SDS011;18974;50.838;4.636;2023-07-31T12:46:00;14.93;;;5.40;;
32535;SDS011;18974;50.838;4.636;2023-07-31T12:48:26;13.70;;;5.40;;
32535;SDS011;18974;50.838;4.636;2023-07-31T12:50:51;12.77;;;5.63;;
32535;SDS011;18974;50.838;4.636;2023-07-31T12:53:17;10.75;;;5.40;;
32535;SDS011;18974;50.838;4.636;2023-07-31T12:55:43;16.35;;;5.10;;
32535;SDS011;18974;50.838;4.636;2023-07-31T12:58:09;13.40;;;5.50;;
32535;SDS011;18974;50.838;4.636;2023-07-31T13:00:34;13.65;;;4.97;;
32535;SDS011;18974;50.838;4.636;2023-07-31T13:03:00;14.68;;;5.63;;
32535;SDS011;18974;50.838;4.636;2023-07-31T13:05:26;11.77;;;5.25;;
32535;SDS011;18974;50.838;4.636;2023-07-31T13:07:53;11.82;;;5.57;;
32535;SDS011;18974;50.838;4.636;2023-07-31T13:10:18;12.85;;;5.35;;
32535;SDS011;18974;50.838;4.636;2023-07-31T13:12:44;11.48;;;5.63;;
32535;SDS011;18974;50.838;4.636;2023-07-31T13:15:10;11.40;;;5.40;;
32535;SDS011;18974;50.838;4.636;2023-07-31T13:17:37;17.70;;;5.97;;
32535;SDS011;18974;50.838;4.636;2023-07-31T13:20:02;11.25;;;5.28;;
32535;SDS011;18974;50.838;4.636;2023-07-31T13:22:29;12.45;;;5.40;;
32535;SDS011;18974;50.838;4.636;2023-07-31T13:24:55;11.90;;;4.82;;
32535;SDS011;18974;50.838;4.636;2023-07-31T13:27:21;10.68;;;4.78;;
32535;SDS011;18974;50.838;4.636;2023-07-31T13:29:50;10.45;;;4.82;;
32535;SDS011;18974;50.838;4.636;2023-07-31T13:32:19;8.45;;;4.65;;
32535;SDS011;18974;50.838;4.636;2023-07-31T13:34:46;10.10;;;5.22;;
32535;SDS011;18974;50.838;4.636;2023-07-31T13:37:12;9.63;;;4.55;;
32535;SDS011;18974;50.838;4.636;2023-07-31T13:39:38;11.77;;;5.22;;
32535;SDS011;18974;50.838;4.636;2023-07-31T13:42:05;12.70;;;5.13;;
32535;SDS011;18974;50.838;4.636;2023-07-31T13:44:33;10.25;;;5.22;;
32535;SDS011;18974;50.838;4.636;2023-07-31T13:46:59;14.35;;;4.60;;
32535;SDS011;18974;50.838;4.636;2023-07-31T13:49:25;10.07;;;3.92;;
32535;SDS011;18974;50.838;4.636;2023-07-31T13:51:51;6.30;;;3.05;;
32535;SDS011;18974;50.838;4.636;2023-07-31T13:54:17;8.25;;;2.95;;
32535;SDS011;18974;50.838;4.636;2023-07-31T13:56:44;6.97;;;2.90;;
32535;SDS011;18974;50.838;4.636;2023-07-31T13:59:10;7.07;;;3.83;;
32535;SDS011;18974;50.838;4.636;2023-07-31T14:01:36;6.78;;;3.78;;
32535;SDS011;18974;50.838;4.636;2023-07-31T14:04:02;6.55;;;3.47;;
32535;SDS011;18974;50.838;4.636;2023-07-31T14:06:28;7.15;;;3.58;;
32535;SDS011;18974;50.838;4.636;2023-07-31T14:08:53;7.30;;;3.38;;
32535;SDS011;18974;50.838;4.636;2023-07-31T14:11:20;8.98;;;4.13;;
32535;SDS011;18974;50.838;4.636;2023-07-31T14:13:47;8.77;;;3.35;;
32535;SDS011;18974;50.838;4.636;2023-07-31T14:16:13;6.25;;;3.17;;
32535;SDS011;18974;50.838;4.636;2023-07-31T14:18:38;6.03;;;3.10;;
32535;SDS011;18974;50.838;4.636;2023-07-31T14:21:04;6.20;;;3.30;;
32535;SDS011;18974;50.838;4.636;2023-07-31T14:23:30;9.57;;;3.67;;
32535;SDS011;18974;50.838;4.636;2023-07-31T14:25:55;7.05;;;3.47;;
32535;SDS011;18974;50.838;4.636;2023-07-31T14:28:21;5.38;;;3.00;;
32535;SDS011;18974;50.838;4.636;2023-07-31T14:30:47;10.18;;;3.45;;
32535;SDS011;18974;50.838;4.636;2023-07-31T14:33:12;6.75;;;3.60;;
32535;SDS011;18974;50.838;4.636;2023-07-31T14:35:38;7.30;;;3.67;;
32535;SDS011;18974;50.838;4.636;2023-07-31T14:38:04;6.30;;;3.08;;
32535;SDS011;18974;50.838;4.636;2023-07-31T14:40:29;6.20;;;3.55;;
32535;SDS011;18974;50.838;4.636;2023-07-31T14:42:55;10.40;;;3.30;;
32535;SDS011;18974;50.838;4.636;2023-07-31T14:45:21;6.32;;;3.47;;
32535;SDS011;18974;50.838;4.636;2023-07-31T14:47:46;6.82;;;3.53;;
32535;SDS011;18974;50.838;4.636;2023-07-31T14:50:12;8.07;;;3.25;;
32535;SDS011;18974;50.838;4.636;2023-07-31T14:52:38;8.13;;;3.80;;
32535;SDS011;18974;50.838;4.636;2023-07-31T14:55:04;5.13;;;2.80;;